Wetterdaten: Woche 16.05.11 - 22.05.11 (KW20)
Datum Zeit Temperatur Luftfeuchte Luftdruck Niederschlag Windrichtung Sonnenschein Solar Wind
16.05.2011 00:00 7,4 C 87 % 1023,5 hPa 0,0 l/m W-SW 0,00 h 0 W/m 7,6 km/h (2 Bft)
16.05.2011 01:00 7,2 C 89 % 1023,7 hPa 0,0 l/m SW 0,00 h 0 W/m 5,1 km/h (1 Bft)
16.05.2011 02:00 6,7 C 93 % 1023,8 hPa 0,0 l/m SW 0,00 h 0 W/m 5,3 km/h (1 Bft)
16.05.2011 03:00 6,4 C 94 % 1023,9 hPa 0,0 l/m SW 0,00 h 0 W/m 4,4 km/h (1 Bft)
16.05.2011 04:00 6,6 C 95 % 1024,0 hPa 0,0 l/m SW 0,00 h 0 W/m 3,5 km/h (1 Bft)
16.05.2011 05:00 6,7 C 94 % 1024,0 hPa 0,0 l/m N 0,00 h 5 W/m 1,6 km/h (1 Bft)
16.05.2011 06:00 6,7 C 95 % 1024,4 hPa 0,0 l/m N 0,00 h 32 W/m 2,3 km/h (1 Bft)
16.05.2011 07:00 7,5 C 92 % 1024,9 hPa 0,0 l/m SW 0,25 h 96 W/m 3,6 km/h (1 Bft)
16.05.2011 08:00 8,4 C 88 % 1025,2 hPa 0,0 l/m SW 0,33 h 193 W/m 6,5 km/h (2 Bft)
16.05.2011 09:00 10,1 C 80 % 1025,4 hPa 0,0 l/m W-SW 0,50 h 308 W/m 10,6 km/h (2 Bft)
16.05.2011 10:00 11,2 C 69 % 1025,3 hPa 0,0 l/m W-NW 0,17 h 279 W/m 10,7 km/h (2 Bft)
16.05.2011 11:00 11,0 C 69 % 1025,5 hPa 0,0 l/m W-NW 0,00 h 170 W/m 10,9 km/h (2 Bft)
16.05.2011 12:00 11,6 C 68 % 1025,4 hPa 0,0 l/m W 0,00 h 183 W/m 11,7 km/h (2 Bft)
16.05.2011 13:00 11,6 C 71 % 1025,3 hPa 0,0 l/m W-SW 0,00 h 136 W/m 15,4 km/h (3 Bft)
16.05.2011 14:00 11,6 C 70 % 1025,2 hPa 0,0 l/m W-SW 0,00 h 179 W/m 13,0 km/h (3 Bft)
16.05.2011 15:00 12,2 C 67 % 1025,0 hPa 0,0 l/m W 0,00 h 213 W/m 14,6 km/h (3 Bft)
16.05.2011 16:00 12,9 C 64 % 1024,8 hPa 0,0 l/m W-SW 0,00 h 162 W/m 16,4 km/h (3 Bft)
16.05.2011 17:00 12,9 C 64 % 1024,5 hPa 0,0 l/m SW 0,00 h 163 W/m 14,6 km/h (3 Bft)
16.05.2011 18:00 12,8 C 64 % 1024,2 hPa 0,0 l/m W-SW 0,00 h 89 W/m 15,8 km/h (3 Bft)
16.05.2011 19:00 12,6 C 65 % 1024,1 hPa 0,0 l/m W 0,00 h 44 W/m 9,4 km/h (2 Bft)
16.05.2011 20:00 12,1 C 70 % 1024,1 hPa 0,0 l/m W-SW 0,00 h 12 W/m 6,4 km/h (2 Bft)
16.05.2011 21:00 11,6 C 70 % 1024,1 hPa 0,0 l/m W-SW 0,00 h 0 W/m 7,1 km/h (2 Bft)
16.05.2011 22:00 11,0 C 75 % 1024,2 hPa 0,0 l/m W-SW 0,00 h 0 W/m 2,3 km/h (1 Bft)
16.05.2011 23:00 10,3 C 81 % 1024,1 hPa 0,0 l/m W-SW 0,00 h 0 W/m 2,4 km/h (1 Bft)
17.05.2011 00:00 10,1 C 82 % 1023,8 hPa 0,0 l/m N 0,00 h 0 W/m 1,6 km/h (1 Bft)
17.05.2011 01:00 9,8 C 84 % 1023,8 hPa 0,0 l/m N 0,00 h 0 W/m 0,3 km/h (0 Bft)
17.05.2011 02:00 9,4 C 86 % 1023,6 hPa 0,0 l/m N 0,00 h 0 W/m 0,7 km/h (0 Bft)
17.05.2011 03:00 9,0 C 89 % 1023,1 hPa 0,0 l/m N 0,00 h 0 W/m 3,5 km/h (1 Bft)
17.05.2011 04:00 8,7 C 91 % 1023,0 hPa 0,0 l/m W-SW 0,00 h 0 W/m 2,9 km/h (1 Bft)
17.05.2011 05:00 8,7 C 91 % 1022,8 hPa 0,0 l/m N 0,00 h 0 W/m 1,7 km/h (1 Bft)
17.05.2011 06:00 8,8 C 91 % 1022,9 hPa 0,0 l/m W-SW 0,00 h 14 W/m 2,4 km/h (1 Bft)
17.05.2011 07:00 9,4 C 90 % 1023,0 hPa 0,0 l/m W-SW 0,00 h 42 W/m 5,9 km/h (2 Bft)
17.05.2011 08:00 10,3 C 88 % 1023,0 hPa 0,0 l/m S-SW 0,00 h 116 W/m 8,9 km/h (2 Bft)
17.05.2011 09:00 11,4 C 83 % 1023,0 hPa 0,0 l/m SW 0,00 h 138 W/m 10,6 km/h (2 Bft)
17.05.2011 10:00 12,7 C 78 % 1022,8 hPa 0,0 l/m S-SW 0,25 h 281 W/m 9,5 km/h (2 Bft)
17.05.2011 11:00 15,2 C 69 % 1022,5 hPa 0,0 l/m W-SW 0,67 h 481 W/m 13,2 km/h (3 Bft)
17.05.2011 12:00 16,1 C 67 % 1022,1 hPa 0,0 l/m SW 0,58 h 468 W/m 14,5 km/h (3 Bft)
17.05.2011 13:00 16,6 C 65 % 1021,7 hPa 0,0 l/m W-SW 0,42 h 507 W/m 16,2 km/h (3 Bft)
17.05.2011 14:00 17,8 C 62 % 1021,1 hPa 0,0 l/m SW 0,67 h 598 W/m 17,7 km/h (3 Bft)
17.05.2011 15:00 18,6 C 60 % 1020,7 hPa 0,0 l/m W-SW 0,67 h 622 W/m 18,1 km/h (3 Bft)
17.05.2011 16:00 17,5 C 60 % 1020,3 hPa 0,0 l/m W-SW 0,00 h 165 W/m 11,7 km/h (2 Bft)
17.05.2011 17:00 16,2 C 69 % 1020,3 hPa 0,0 l/m W 0,00 h 87 W/m 8,3 km/h (2 Bft)
17.05.2011 18:00 15,2 C 77 % 1020,1 hPa 0,0 l/m S-SW 0,00 h 59 W/m 7,4 km/h (2 Bft)
17.05.2011 19:00 14,0 C 87 % 1020,4 hPa 0,2 l/m SW 0,00 h 27 W/m 2,5 km/h (1 Bft)
17.05.2011 20:00 13,4 C 86 % 1020,1 hPa 0,2 l/m SW 0,00 h 11 W/m 7,0 km/h (2 Bft)
17.05.2011 21:00 12,5 C 86 % 1020,0 hPa 0,0 l/m SW 0,00 h 0 W/m 3,1 km/h (1 Bft)
17.05.2011 22:00 10,9 C 93 % 1020,2 hPa 0,0 l/m N 0,00 h 0 W/m 0,0 km/h (0 Bft)
17.05.2011 23:00 9,5 C 94 % 1020,1 hPa 0,0 l/m N 0,00 h 0 W/m 0,3 km/h (0 Bft)
18.05.2011 00:00 8,5 C 96 % 1019,9 hPa 0,0 l/m N 0,00 h 0 W/m 0,0 km/h (0 Bft)
18.05.2011 01:00 8,1 C 96 % 1019,6 hPa 0,0 l/m N 0,00 h 0 W/m 0,0 km/h (0 Bft)
18.05.2011 02:00 7,2 C 97 % 1019,3 hPa 0,0 l/m N 0,00 h 0 W/m 0,0 km/h (0 Bft)
18.05.2011 03:00 6,8 C 97 % 1018,8 hPa 0,0 l/m N 0,00 h 0 W/m 0,0 km/h (0 Bft)
18.05.2011 04:00 6,1 C 97 % 1018,6 hPa 0,0 l/m N 0,00 h 0 W/m 0,0 km/h (0 Bft)
18.05.2011 05:00 5,7 C 97 % 1018,5 hPa 0,0 l/m N 0,00 h 7 W/m 0,0 km/h (0 Bft)
18.05.2011 06:00 6,2 C 97 % 1018,6 hPa 0,0 l/m N 0,33 h 59 W/m 0,5 km/h (0 Bft)
18.05.2011 07:00 9,0 C 94 % 1018,6 hPa 0,0 l/m N 1,00 h 223 W/m 0,1 km/h (0 Bft)
18.05.2011 08:00 12,2 C 83 % 1018,6 hPa 0,0 l/m SW 1,00 h 396 W/m 1,7 km/h (1 Bft)
18.05.2011 09:00 15,3 C 66 % 1018,5 hPa 0,0 l/m SO 1,00 h 570 W/m 4,1 km/h (1 Bft)
18.05.2011 10:00 17,6 C 59 % 1017,9 hPa 0,0 l/m O-SO 1,00 h 720 W/m 9,4 km/h (2 Bft)
18.05.2011 11:00 19,3 C 52 % 1017,6 hPa 0,0 l/m O-NO 1,00 h 836 W/m 13,4 km/h (3 Bft)
18.05.2011 12:00 20,6 C 46 % 1017,2 hPa 0,0 l/m O 1,00 h 911 W/m 10,5 km/h (2 Bft)
18.05.2011 13:00 21,8 C 42 % 1016,7 hPa 0,0 l/m O-SO 1,00 h 930 W/m 11,3 km/h (2 Bft)
18.05.2011 14:00 22,1 C 42 % 1016,1 hPa 0,0 l/m NO 1,00 h 911 W/m 9,1 km/h (2 Bft)
18.05.2011 15:00 23,2 C 41 % 1015,4 hPa 0,0 l/m W-SW 1,00 h 848 W/m 10,1 km/h (2 Bft)
18.05.2011 16:00 23,7 C 37 % 1014,6 hPa 0,0 l/m O-SO 1,00 h 718 W/m 10,3 km/h (2 Bft)
18.05.2011 17:00 23,5 C 35 % 1014,1 hPa 0,0 l/m SW 1,00 h 561 W/m 9,8 km/h (2 Bft)
18.05.2011 18:00 23,1 C 35 % 1013,8 hPa 0,0 l/m SW 1,00 h 397 W/m 10,1 km/h (2 Bft)
18.05.2011 19:00 21,4 C 41 % 1013,7 hPa 0,0 l/m SW 0,92 h 181 W/m 7,5 km/h (2 Bft)
18.05.2011 20:00 18,4 C 52 % 1013,6 hPa 0,0 l/m N 0,08 h 18 W/m 1,2 km/h (1 Bft)
18.05.2011 21:00 15,3 C 63 % 1013,9 hPa 0,0 l/m N 0,00 h 0 W/m 0,1 km/h (0 Bft)
18.05.2011 22:00 13,4 C 68 % 1014,3 hPa 0,0 l/m N 0,00 h 0 W/m 0,0 km/h (0 Bft)
18.05.2011 23:00 12,1 C 74 % 1014,4 hPa 0,0 l/m N 0,00 h 0 W/m 0,7 km/h (0 Bft)
19.05.2011 00:00 11,1 C 78 % 1014,5 hPa 0,0 l/m N 0,00 h 0 W/m 0,0 km/h (0 Bft)
19.05.2011 01:00 10,4 C 82 % 1014,5 hPa 0,0 l/m N 0,00 h 0 W/m 0,0 km/h (0 Bft)
19.05.2011 02:00 9,6 C 85 % 1014,5 hPa 0,0 l/m N 0,00 h 0 W/m 0,0 km/h (0 Bft)
19.05.2011 03:00 9,3 C 86 % 1014,5 hPa 0,0 l/m N 0,00 h 0 W/m 0,0 km/h (0 Bft)
19.05.2011 04:00 9,7 C 87 % 1014,6 hPa 0,0 l/m N 0,00 h 0 W/m 0,0 km/h (0 Bft)
19.05.2011 05:00 9,6 C 89 % 1014,7 hPa 0,0 l/m N 0,08 h 9 W/m 0,0 km/h (0 Bft)
19.05.2011 06:00 10,1 C 88 % 1015,0 hPa 0,2 l/m N 0,17 h 46 W/m 0,0 km/h (0 Bft)
19.05.2011 07:00 11,3 C 91 % 1015,1 hPa 0,0 l/m N 0,08 h 116 W/m 0,0 km/h (0 Bft)
19.05.2011 08:00 15,3 C 79 % 1015,2 hPa 0,0 l/m S-SO 0,75 h 341 W/m 4,0 km/h (1 Bft)
19.05.2011 09:00 18,2 C 66 % 1015,2 hPa 0,0 l/m S-SO 0,92 h 554 W/m 7,1 km/h (2 Bft)
19.05.2011 10:00 20,3 C 61 % 1015,0 hPa 0,0 l/m SW 1,00 h 696 W/m 10,3 km/h (2 Bft)
19.05.2011 11:00 21,9 C 50 % 1014,9 hPa 0,0 l/m SW 1,00 h 823 W/m 13,8 km/h (3 Bft)
19.05.2011 12:00 23,1 C 48 % 1014,6 hPa 0,0 l/m SW 1,00 h 890 W/m 13,4 km/h (3 Bft)
19.05.2011 13:00 23,8 C 43 % 1014,1 hPa 0,0 l/m SW 0,83 h 778 W/m 13,8 km/h (3 Bft)
19.05.2011 14:00 24,6 C 38 % 1013,6 hPa 0,0 l/m SW 1,00 h 894 W/m 14,1 km/h (3 Bft)
19.05.2011 15:00 25,1 C 33 % 1013,3 hPa 0,0 l/m W-NW 1,00 h 835 W/m 14,9 km/h (3 Bft)
19.05.2011 16:00 23,7 C 40 % 1013,3 hPa 0,0 l/m N-NW 0,83 h 595 W/m 19,4 km/h (3 Bft)
19.05.2011 17:00 22,9 C 39 % 1013,3 hPa 0,0 l/m N 1,00 h 519 W/m 18,9 km/h (3 Bft)
19.05.2011 18:00 21,5 C 42 % 1013,1 hPa 0,0 l/m N-NO 0,25 h 153 W/m 14,5 km/h (3 Bft)
19.05.2011 19:00 19,2 C 52 % 1013,8 hPa 0,0 l/m N 0,00 h 74 W/m 9,7 km/h (2 Bft)
19.05.2011 20:00 17,8 C 59 % 1014,6 hPa 0,0 l/m N-NO 0,00 h 16 W/m 10,7 km/h (2 Bft)
19.05.2011 21:00 16,2 C 66 % 1015,2 hPa 0,0 l/m N-NW 0,00 h 0 W/m 7,2 km/h (2 Bft)
19.05.2011 22:00 14,4 C 77 % 1016,0 hPa 0,0 l/m S 0,00 h 0 W/m 3,1 km/h (1 Bft)
19.05.2011 23:00 14,4 C 79 % 1016,6 hPa 0,0 l/m N 0,00 h 0 W/m 2,9 km/h (1 Bft)
20.05.2011 00:00 13,5 C 82 % 1016,9 hPa 0,0 l/m N 0,00 h 0 W/m 0,7 km/h (0 Bft)
20.05.2011 01:00 12,2 C 88 % 1016,8 hPa 0,0 l/m N 0,00 h 0 W/m 0,4 km/h (0 Bft)
20.05.2011 02:00 11,5 C 90 % 1017,0 hPa 0,0 l/m N 0,00 h 0 W/m 0,4 km/h (0 Bft)
20.05.2011 03:00 11,1 C 92 % 1016,6 hPa 0,0 l/m N 0,00 h 0 W/m 0,3 km/h (0 Bft)
20.05.2011 04:00 10,3 C 93 % 1016,2 hPa 0,0 l/m N 0,00 h 0 W/m 0,5 km/h (0 Bft)
20.05.2011 05:00 9,7 C 94 % 1016,5 hPa 0,0 l/m N 0,00 h 8 W/m 0,0 km/h (0 Bft)
20.05.2011 06:00 9,7 C 95 % 1016,8 hPa 0,0 l/m N 0,08 h 58 W/m 0,0 km/h (0 Bft)
20.05.2011 07:00 11,3 C 93 % 1016,7 hPa 0,0 l/m N 1,00 h 199 W/m 0,0 km/h (0 Bft)
20.05.2011 08:00 14,6 C 87 % 1016,9 hPa 0,0 l/m S-SW 1,00 h 372 W/m 4,7 km/h (1 Bft)
20.05.2011 09:00 17,4 C 78 % 1017,0 hPa 0,0 l/m SW 1,00 h 547 W/m 9,8 km/h (2 Bft)
20.05.2011 10:00 19,9 C 67 % 1017,1 hPa 0,0 l/m SW 1,00 h 698 W/m 12,5 km/h (3 Bft)
20.05.2011 11:00 21,4 C 53 % 1017,0 hPa 0,0 l/m W-SW 1,00 h 822 W/m 14,9 km/h (3 Bft)
20.05.2011 12:00 22,6 C 47 % 1016,7 hPa 0,0 l/m SW 1,00 h 897 W/m 14,6 km/h (3 Bft)
20.05.2011 13:00 23,8 C 43 % 1016,5 hPa 0,0 l/m SW 1,00 h 873 W/m 18,8 km/h (3 Bft)
20.05.2011 14:00 20,1 C 51 % 1016,9 hPa 0,0 l/m N-NW 0,00 h 348 W/m 22,4 km/h (4 Bft)
20.05.2011 15:00 19,2 C 55 % 1016,7 hPa 0,0 l/m N 0,08 h 341 W/m 17,0 km/h (3 Bft)
20.05.2011 16:00 21,0 C 48 % 1016,3 hPa 0,0 l/m N-NW 1,00 h 598 W/m 13,8 km/h (3 Bft)
20.05.2011 17:00 22,0 C 44 % 1015,8 hPa 0,0 l/m N-NW 1,00 h 565 W/m 14,0 km/h (3 Bft)
20.05.2011 18:00 22,0 C 44 % 1015,7 hPa 0,0 l/m N-NW 0,92 h 360 W/m 7,8 km/h (2 Bft)
20.05.2011 19:00 20,9 C 50 % 1016,0 hPa 0,0 l/m N 0,50 h 126 W/m 2,0 km/h (1 Bft)
20.05.2011 20:00 18,4 C 63 % 1016,4 hPa 0,0 l/m N 0,08 h 17 W/m 0,4 km/h (0 Bft)
20.05.2011 21:00 16,1 C 69 % 1017,0 hPa 0,0 l/m N-NW 0,00 h 0 W/m 0,8 km/h (0 Bft)
20.05.2011 22:00 15,7 C 69 % 1017,8 hPa 0,0 l/m W 0,00 h 0 W/m 7,8 km/h (2 Bft)
20.05.2011 23:00 15,5 C 76 % 1018,2 hPa 1,0 l/m W 0,00 h 0 W/m 22,8 km/h (4 Bft)
21.05.2011 00:00 13,5 C 90 % 1019,1 hPa 0,8 l/m W 0,00 h 0 W/m 16,8 km/h (3 Bft)
21.05.2011 01:00 13,2 C 93 % 1018,5 hPa 0,8 l/m O-NO 0,00 h 0 W/m 4,7 km/h (1 Bft)
21.05.2011 02:00 12,5 C 96 % 1018,0 hPa 0,0 l/m W-NW 0,00 h 0 W/m 3,2 km/h (1 Bft)
21.05.2011 03:00 12,4 C 96 % 1018,3 hPa 0,0 l/m W-NW 0,00 h 0 W/m 2,0 km/h (1 Bft)
21.05.2011 04:00 12,1 C 97 % 1018,4 hPa 0,0 l/m N 0,00 h 0 W/m 0,3 km/h (0 Bft)
21.05.2011 05:00 11,4 C 97 % 1018,5 hPa 0,2 l/m N 0,00 h 7 W/m 0,3 km/h (0 Bft)
21.05.2011 06:00 10,9 C 98 % 1018,9 hPa 0,0 l/m N 0,00 h 18 W/m 0,8 km/h (0 Bft)
21.05.2011 07:00 12,1 C 98 % 1019,1 hPa 0,0 l/m N 0,83 h 211 W/m 0,4 km/h (0 Bft)
21.05.2011 08:00 15,0 C 89 % 1019,2 hPa 0,0 l/m W-NW 1,00 h 400 W/m 2,5 km/h (1 Bft)
21.05.2011 09:00 17,5 C 77 % 1019,2 hPa 0,0 l/m W-NW 1,00 h 554 W/m 4,7 km/h (1 Bft)
21.05.2011 10:00 19,1 C 67 % 1019,2 hPa 0,0 l/m O-SO 0,67 h 507 W/m 6,1 km/h (2 Bft)
21.05.2011 11:00 21,1 C 54 % 1019,1 hPa 0,0 l/m O-SO 1,00 h 854 W/m 12,2 km/h (2 Bft)
21.05.2011 12:00 22,3 C 51 % 1018,7 hPa 0,0 l/m O-SO 1,00 h 808 W/m 11,8 km/h (2 Bft)
21.05.2011 13:00 23,0 C 45 % 1018,0 hPa 0,0 l/m NO 1,00 h 955 W/m 10,3 km/h (2 Bft)
21.05.2011 14:00 24,0 C 41 % 1017,4 hPa 0,0 l/m O 0,83 h 820 W/m 13,0 km/h (3 Bft)
21.05.2011 15:00 24,0 C 41 % 1016,9 hPa 0,0 l/m NO 0,67 h 615 W/m 11,9 km/h (2 Bft)
21.05.2011 16:00 23,9 C 41 % 1016,4 hPa 0,0 l/m O-NO 0,67 h 552 W/m 12,1 km/h (2 Bft)
21.05.2011 17:00 23,8 C 43 % 1016,0 hPa 0,0 l/m O-NO 0,58 h 362 W/m 16,4 km/h (3 Bft)
21.05.2011 18:00 23,8 C 45 % 1015,6 hPa 0,0 l/m NO 1,00 h 375 W/m 12,8 km/h (3 Bft)
21.05.2011 19:00 22,9 C 47 % 1015,6 hPa 0,0 l/m N-NO 0,83 h 162 W/m 10,9 km/h (2 Bft)
21.05.2011 20:00 21,1 C 53 % 1015,9 hPa 0,0 l/m NO 0,00 h 20 W/m 9,8 km/h (2 Bft)
21.05.2011 21:00 18,6 C 61 % 1016,1 hPa 0,0 l/m N-NO 0,00 h 0 W/m 7,5 km/h (2 Bft)
21.05.2011 22:00 16,3 C 72 % 1016,2 hPa 0,0 l/m SW 0,00 h 0 W/m 2,8 km/h (1 Bft)
21.05.2011 23:00 14,9 C 78 % 1016,3 hPa 0,0 l/m SW 0,00 h 0 W/m 2,3 km/h (1 Bft)
22.05.2011 00:00 14,7 C 77 % 1016,1 hPa 0,0 l/m SW 0,00 h 0 W/m 5,1 km/h (1 Bft)
22.05.2011 01:00 14,4 C 76 % 1015,8 hPa 0,0 l/m W-NW 0,00 h 0 W/m 6,4 km/h (2 Bft)
22.05.2011 02:00 13,1 C 82 % 1015,6 hPa 0,0 l/m W-NW 0,00 h 0 W/m 2,4 km/h (1 Bft)
22.05.2011 03:00 11,6 C 89 % 1015,4 hPa 0,0 l/m N 0,00 h 0 W/m 0,1 km/h (0 Bft)
22.05.2011 04:00 11,0 C 91 % 1015,2 hPa 0,0 l/m N 0,00 h 0 W/m 0,0 km/h (0 Bft)
22.05.2011 05:00 10,3 C 93 % 1015,3 hPa 0,0 l/m N 0,00 h 8 W/m 0,0 km/h (0 Bft)
22.05.2011 06:00 10,4 C 94 % 1015,4 hPa 0,0 l/m N 0,08 h 57 W/m 0,0 km/h (0 Bft)
22.05.2011 07:00 13,2 C 85 % 1015,6 hPa 0,0 l/m N 1,00 h 208 W/m 0,0 km/h (0 Bft)
22.05.2011 08:00 15,5 C 80 % 1015,9 hPa 0,0 l/m N 1,00 h 374 W/m 0,0 km/h (0 Bft)
22.05.2011 09:00 18,8 C 72 % 1015,8 hPa 0,0 l/m S-SO 1,00 h 543 W/m 2,1 km/h (1 Bft)
22.05.2011 10:00 20,9 C 68 % 1015,8 hPa 0,0 l/m S 1,00 h 675 W/m 10,8 km/h (2 Bft)
22.05.2011 11:00 22,5 C 60 % 1015,7 hPa 0,0 l/m W-SW 1,00 h 753 W/m 13,3 km/h (3 Bft)
22.05.2011 12:00 22,7 C 54 % 1015,6 hPa 0,0 l/m NO 0,50 h 501 W/m 16,9 km/h (3 Bft)
22.05.2011 13:00 21,2 C 58 % 1015,9 hPa 0,0 l/m N-NO 0,33 h 409 W/m 15,7 km/h (3 Bft)
22.05.2011 14:00 17,1 C 79 % 1016,8 hPa 29,6 l/m O-NO 0,00 h 18 W/m 15,5 km/h (3 Bft)
22.05.2011 15:00 14,4 C 96 % 1016,7 hPa 0,8 l/m NW 0,00 h 61 W/m 3,9 km/h (1 Bft)
22.05.2011 16:00 16,6 C 92 % 1016,5 hPa 0,0 l/m SW 0,75 h 518 W/m 5,3 km/h (1 Bft)
22.05.2011 17:00 17,8 C 85 % 1016,9 hPa 0,0 l/m SW 0,17 h 167 W/m 9,3 km/h (2 Bft)
22.05.2011 18:00 16,7 C 88 % 1017,5 hPa 0,0 l/m SW 0,33 h 178 W/m 11,5 km/h (2 Bft)
22.05.2011 19:00 17,1 C 82 % 1017,7 hPa 0,0 l/m SW 0,83 h 196 W/m 16,9 km/h (3 Bft)
22.05.2011 20:00 15,3 C 88 % 1018,1 hPa 0,0 l/m SW 0,00 h 15 W/m 7,2 km/h (2 Bft)
22.05.2011 21:00 14,5 C 92 % 1018,7 hPa 0,0 l/m SW 0,00 h 0 W/m 2,1 km/h (1 Bft)
22.05.2011 22:00 14,7 C 90 % 1019,5 hPa 0,0 l/m S-SW 0,00 h 0 W/m 5,2 km/h (1 Bft)
22.05.2011 23:00 14,3 C 93 % 1020,4 hPa 0,0 l/m N 0,00 h 0 W/m 3,2 km/h (1 Bft)
Min-Datum _ 18.05.11 19.05.11 19.05.11 - - - - 16.05.11
_ Min-Zeit 05:55 16:05 18:20 - - - - 04:35
Minimum _ 5,4 C 30 % 1012,9 hPa - - - - 0,0 km/h (0 Bft)
Max-Datum _ 19.05.11 21.05.11 16.05.11 22.05.11 - 16.05.11 17.05.11 22.05.11
_ Max-Zeit 15:10 07:50 11:45 14:35 - 07:05 14:20 14:30
Maximum _ 25,4 C 100 % 1025,7 hPa 29,6 l/m - 0,08 h 1259 W/m 51,5 km/h
O-NO (7 Bft)
Durchschnitt _ 15,0 C 73 % 1018,4 hPa #33,8 l/m SW #57:30 h 362 W/m 7,0 km/h (2 Bft)